sensor_id;sensor_type;location;lat;lon;timestamp;pressure;altitude;pressure_sealevel;temperature;humidity
20015;BME280;61787;42.022;23.078;2023-11-18T00:00:21;95822.69;;;8.04;100.00
20015;BME280;61787;42.022;23.078;2023-11-18T00:01:23;95820.78;;;8.05;100.00
20015;BME280;61787;42.022;23.078;2023-11-18T00:02:25;95827.13;;;8.00;100.00
20015;BME280;61787;42.022;23.078;2023-11-18T00:03:27;95820.66;;;8.01;100.00
20015;BME280;61787;42.022;23.078;2023-11-18T00:04:28;95820.25;;;7.99;100.00
20015;BME280;61787;42.022;23.078;2023-11-18T00:05:30;95831.25;;;7.98;100.00
20015;BME280;61787;42.022;23.078;2023-11-18T00:06:32;95833.16;;;7.97;100.00
20015;BME280;61787;42.022;23.078;2023-11-18T00:07:33;95834.94;;;7.93;100.00
20015;BME280;61787;42.022;23.078;2023-11-18T00:08:35;95835.63;;;7.90;100.00
20015;BME280;61787;42.022;23.078;2023-11-18T00:09:37;95837.09;;;7.88;100.00
20015;BME280;61787;42.022;23.078;2023-11-18T00:10:39;95845.88;;;7.88;100.00
20015;BME280;61787;42.022;23.078;2023-11-18T00:11:41;95848.53;;;7.88;100.00
20015;BME280;61787;42.022;23.078;2023-11-18T00:12:43;95841.63;;;7.87;100.00
20015;BME280;61787;42.022;23.078;2023-11-18T00:13:45;95840.84;;;7.87;100.00
20015;BME280;61787;42.022;23.078;2023-11-18T00:14:48;95838.53;;;7.85;100.00
20015;BME280;61787;42.022;23.078;2023-11-18T00:15:49;95832.06;;;7.86;100.00
20015;BME280;61787;42.022;23.078;2023-11-18T00:16:51;95837.88;;;7.88;100.00
20015;BME280;61787;42.022;23.078;2023-11-18T00:17:53;95850.88;;;7.90;100.00
20015;BME280;61787;42.022;23.078;2023-11-18T00:18:55;95849.72;;;7.91;100.00
20015;BME280;61787;42.022;23.078;2023-11-18T00:19:56;95850.97;;;7.93;100.00
20015;BME280;61787;42.022;23.078;2023-11-18T00:20:58;95854.06;;;7.95;100.00
20015;BME280;61787;42.022;23.078;2023-11-18T00:22:00;95850.63;;;7.95;100.00
20015;BME280;61787;42.022;23.078;2023-11-18T00:23:02;95866.19;;;7.93;100.00
20015;BME280;61787;42.022;23.078;2023-11-18T00:24:06;95862.31;;;7.90;100.00
20015;BME280;61787;42.022;23.078;2023-11-18T00:25:09;95870.31;;;7.90;100.00
20015;BME280;61787;42.022;23.078;2023-11-18T00:26:12;95872.31;;;7.93;100.00
20015;BME280;61787;42.022;23.078;2023-11-18T00:27:15;95872.31;;;7.93;100.00
20015;BME280;61787;42.022;23.078;2023-11-18T00:28:16;95876.78;;;7.89;100.00
20015;BME280;61787;42.022;23.078;2023-11-18T00:29:20;95876.78;;;7.89;100.00
20015;BME280;61787;42.022;23.078;2023-11-18T00:30:22;95872.09;;;7.86;100.00
20015;BME280;61787;42.022;23.078;2023-11-18T00:31:24;95876.34;;;7.87;100.00
20015;BME280;61787;42.022;23.078;2023-11-18T00:32:26;95882.78;;;7.86;100.00
20015;BME280;61787;42.022;23.078;2023-11-18T00:33:28;95878.13;;;7.83;100.00
20015;BME280;61787;42.022;23.078;2023-11-18T00:34:30;95889.47;;;7.80;100.00
20015;BME280;61787;42.022;23.078;2023-11-18T00:35:31;95885.59;;;7.78;100.00
20015;BME280;61787;42.022;23.078;2023-11-18T00:36:35;95883.25;;;7.76;100.00
20015;BME280;61787;42.022;23.078;2023-11-18T00:37:37;95877.50;;;7.74;100.00
20015;BME280;61787;42.022;23.078;2023-11-18T00:38:38;95880.03;;;7.70;100.00
20015;BME280;61787;42.022;23.078;2023-11-18T00:39:40;95882.28;;;7.68;100.00
20015;BME280;61787;42.022;23.078;2023-11-18T00:40:42;95881.81;;;7.66;100.00
20015;BME280;61787;42.022;23.078;2023-11-18T00:41:44;95886.72;;;7.64;100.00
20015;BME280;61787;42.022;23.078;2023-11-18T00:42:46;95888.16;;;7.62;100.00
20015;BME280;61787;42.022;23.078;2023-11-18T00:43:47;95882.38;;;7.60;100.00
20015;BME280;61787;42.022;23.078;2023-11-18T00:44:49;95895.72;;;7.60;100.00
20015;BME280;61787;42.022;23.078;2023-11-18T00:45:51;95899.53;;;7.59;100.00
20015;BME280;61787;42.022;23.078;2023-11-18T00:46:52;95894.19;;;7.59;100.00
20015;BME280;61787;42.022;23.078;2023-11-18T00:47:54;95887.94;;;7.55;100.00
20015;BME280;61787;42.022;23.078;2023-11-18T00:48:56;95901.28;;;7.55;100.00
20015;BME280;61787;42.022;23.078;2023-11-18T00:49:59;95905.19;;;7.57;100.00
20015;BME280;61787;42.022;23.078;2023-11-18T00:51:04;95898.75;;;7.58;100.00
20015;BME280;61787;42.022;23.078;2023-11-18T00:52:05;95891.53;;;7.59;100.00
20015;BME280;61787;42.022;23.078;2023-11-18T00:53:07;95890.97;;;7.53;100.00
20015;BME280;61787;42.022;23.078;2023-11-18T00:54:09;95898.63;;;7.55;100.00
20015;BME280;61787;42.022;23.078;2023-11-18T00:55:11;95887.94;;;7.55;100.00
20015;BME280;61787;42.022;23.078;2023-11-18T00:56:15;95888.84;;;7.59;100.00
20015;BME280;61787;42.022;23.078;2023-11-18T00:57:19;95889.59;;;7.59;100.00
20015;BME280;61787;42.022;23.078;2023-11-18T00:58:21;95887.28;;;7.58;100.00
20015;BME280;61787;42.022;23.078;2023-11-18T00:59:22;95891.75;;;7.54;100.00
20015;BME280;61787;42.022;23.078;2023-11-18T01:00:24;95887.16;;;7.54;100.00
20015;BME280;61787;42.022;23.078;2023-11-18T01:01:27;95896.63;;;7.52;100.00
20015;BME280;61787;42.022;23.078;2023-11-18T01:02:29;95893.97;;;7.52;100.00
20015;BME280;61787;42.022;23.078;2023-11-18T01:03:31;95899.97;;;7.49;100.00
20015;BME280;61787;42.022;23.078;2023-11-18T01:04:33;95893.09;;;7.48;100.00
20015;BME280;61787;42.022;23.078;2023-11-18T01:05:35;95902.88;;;7.44;100.00
20015;BME280;61787;42.022;23.078;2023-11-18T01:06:37;95905.72;;;7.39;100.00
20015;BME280;61787;42.022;23.078;2023-11-18T01:07:39;95911.06;;;7.39;100.00
20015;BME280;61787;42.022;23.078;2023-11-18T01:08:45;95908.84;;;7.41;100.00
20015;BME280;61787;42.022;23.078;2023-11-18T01:09:47;95908.06;;;7.40;100.00
20015;BME280;61787;42.022;23.078;2023-11-18T01:10:48;95911.97;;;7.43;100.00
20015;BME280;61787;42.022;23.078;2023-11-18T01:11:50;95905.09;;;7.42;100.00
20015;BME280;61787;42.022;23.078;2023-11-18T01:13:09;95906.09;;;7.37;100.00
20015;BME280;61787;42.022;23.078;2023-11-18T01:14:11;95901.75;;;7.33;100.00
20015;BME280;61787;42.022;23.078;2023-11-18T01:15:13;95904.84;;;7.35;100.00
20015;BME280;61787;42.022;23.078;2023-11-18T01:16:16;95901.75;;;7.33;100.00
20015;BME280;61787;42.022;23.078;2023-11-18T01:17:18;95902.41;;;7.29;100.00
20015;BME280;61787;42.022;23.078;2023-11-18T01:18:19;95899.31;;;7.27;100.00
20015;BME280;61787;42.022;23.078;2023-11-18T01:19:22;95911.09;;;7.26;100.00
20015;BME280;61787;42.022;23.078;2023-11-18T01:20:24;95908.75;;;7.25;100.00
20015;BME280;61787;42.022;23.078;2023-11-18T01:21:26;95916.75;;;7.25;100.00
20015;BME280;61787;42.022;23.078;2023-11-18T01:22:28;95911.41;;;7.25;100.00
20015;BME280;61787;42.022;23.078;2023-11-18T01:23:30;95925.84;;;7.24;100.00
20015;BME280;61787;42.022;23.078;2023-11-18T01:24:32;95918.31;;;7.26;100.00
20015;BME280;61787;42.022;23.078;2023-11-18T01:25:35;95925.75;;;7.20;100.00
20015;BME280;61787;42.022;23.078;2023-11-18T01:26:36;95938.28;;;7.20;100.00
20015;BME280;61787;42.022;23.078;2023-11-18T01:27:38;95940.31;;;7.23;100.00
20015;BME280;61787;42.022;23.078;2023-11-18T01:28:41;95932.63;;;7.21;100.00
20015;BME280;61787;42.022;23.078;2023-11-18T01:29:45;95932.63;;;7.21;100.00
20015;BME280;61787;42.022;23.078;2023-11-18T01:30:48;95929.97;;;7.21;100.00
20015;BME280;61787;42.022;23.078;2023-11-18T01:31:50;95933.97;;;7.15;100.00
20015;BME280;61787;42.022;23.078;2023-11-18T01:32:53;95936.31;;;7.17;100.00
20015;BME280;61787;42.022;23.078;2023-11-18T01:33:55;95938.41;;;7.11;100.00
20015;BME280;61787;42.022;23.078;2023-11-18T01:34:57;95940.19;;;7.07;100.00
20015;BME280;61787;42.022;23.078;2023-11-18T01:35:59;95937.50;;;7.07;100.00
20015;BME280;61787;42.022;23.078;2023-11-18T01:37:00;95942.16;;;7.10;100.00
20015;BME280;61787;42.022;23.078;2023-11-18T01:38:02;95944.84;;;7.10;100.00
20015;BME280;61787;42.022;23.078;2023-11-18T01:39:04;95936.38;;;7.08;100.00
20015;BME280;61787;42.022;23.078;2023-11-18T01:40:06;95940.97;;;7.08;100.00
20015;BME280;61787;42.022;23.078;2023-11-18T01:41:16;95933.94;;;7.03;100.00
20015;BME280;61787;42.022;23.078;2023-11-18T01:42:20;95924.41;;;7.02;100.00
20015;BME280;61787;42.022;23.078;2023-11-18T01:43:22;95923.06;;;6.96;100.00
20015;BME280;61787;42.022;23.078;2023-11-18T01:44:24;95925.72;;;6.96;100.00
20015;BME280;61787;42.022;23.078;2023-11-18T01:45:26;95923.28;;;6.91;100.00
20015;BME280;61787;42.022;23.078;2023-11-18T01:46:28;95922.16;;;6.92;100.00
20015;BME280;61787;42.022;23.078;2023-11-18T01:47:32;95929.25;;;6.88;100.00
20015;BME280;61787;42.022;23.078;2023-11-18T01:48:35;95915.59;;;6.90;100.00
20015;BME280;61787;42.022;23.078;2023-11-18T01:49:38;95932.38;;;6.90;100.00
20015;BME280;61787;42.022;23.078;2023-11-18T01:50:42;95929.38;;;6.92;100.00
20015;BME280;61787;42.022;23.078;2023-11-18T01:51:46;95935.50;;;6.92;100.00
20015;BME280;61787;42.022;23.078;2023-11-18T01:52:48;95938.47;;;6.91;100.00
20015;BME280;61787;42.022;23.078;2023-11-18T01:53:50;95939.25;;;6.91;100.00
20015;BME280;61787;42.022;23.078;2023-11-18T01:54:53;95943.03;;;6.90;100.00
20015;BME280;61787;42.022;23.078;2023-11-18T01:55:56;95952.13;;;6.89;100.00
20015;BME280;61787;42.022;23.078;2023-11-18T01:57:00;95953.22;;;6.88;100.00
20015;BME280;61787;42.022;23.078;2023-11-18T01:58:07;95949.78;;;6.88;100.00
20015;BME280;61787;42.022;23.078;2023-11-18T01:59:12;95956.25;;;6.87;100.00
20015;BME280;61787;42.022;23.078;2023-11-18T02:00:20;95953.56;;;6.87;100.00
20015;BME280;61787;42.022;23.078;2023-11-18T02:01:21;95952.13;;;6.89;100.00
20015;BME280;61787;42.022;23.078;2023-11-18T02:02:23;95939.91;;;6.88;100.00
20015;BME280;61787;42.022;23.078;2023-11-18T02:03:26;95943.69;;;6.87;100.00
20015;BME280;61787;42.022;23.078;2023-11-18T02:04:29;95945.91;;;6.85;100.00
20015;BME280;61787;42.022;23.078;2023-11-18T02:05:32;95939.47;;;6.86;100.00
20015;BME280;61787;42.022;23.078;2023-11-18T02:06:34;95937.25;;;6.88;100.00
20015;BME280;61787;42.022;23.078;2023-11-18T02:07:36;95946.78;;;6.89;100.00
20015;BME280;61787;42.022;23.078;2023-11-18T02:08:39;95941.47;;;6.89;100.00
20015;BME280;61787;42.022;23.078;2023-11-18T02:09:41;95942.56;;;6.88;100.00
20015;BME280;61787;42.022;23.078;2023-11-18T02:10:57;95943.03;;;6.90;100.00
20015;BME280;61787;42.022;23.078;2023-11-18T02:13:29;95947.69;;;6.93;100.00
20015;BME280;61787;42.022;23.078;2023-11-18T02:14:31;95937.03;;;6.93;100.00
20015;BME280;61787;42.022;23.078;2023-11-18T02:15:35;95949.47;;;6.89;100.00
20015;BME280;61787;42.022;23.078;2023-11-18T02:16:38;95941.56;;;6.93;100.00
20015;BME280;61787;42.022;23.078;2023-11-18T02:17:43;95947.38;;;6.95;100.00
20015;BME280;61787;42.022;23.078;2023-11-18T02:18:47;95946.16;;;6.92;100.00
20015;BME280;61787;42.022;23.078;2023-11-18T02:19:52;95946.00;;;6.89;100.00
20015;BME280;61787;42.022;23.078;2023-11-18T02:20:55;95953.00;;;6.93;100.00
20015;BME280;61787;42.022;23.078;2023-11-18T02:22:00;95951.47;;;6.92;100.00
20015;BME280;61787;42.022;23.078;2023-11-18T02:23:02;95956.81;;;6.92;100.00
20015;BME280;61787;42.022;23.078;2023-11-18T02:24:04;95955.25;;;6.91;100.00
20015;BME280;61787;42.022;23.078;2023-11-18T02:25:07;95964.34;;;6.90;100.00
20015;BME280;61787;42.022;23.078;2023-11-18T02:26:20;95962.78;;;6.89;100.00
20015;BME280;61787;42.022;23.078;2023-11-18T02:27:22;95964.34;;;6.90;100.00
20015;BME280;61787;42.022;23.078;2023-11-18T02:28:25;95957.44;;;6.89;100.00
20015;BME280;61787;42.022;23.078;2023-11-18T02:29:33;95962.00;;;6.89;100.00
20015;BME280;61787;42.022;23.078;2023-11-18T02:30:39;95969.22;;;6.88;100.00
20015;BME280;61787;42.022;23.078;2023-11-18T02:31:43;95965.00;;;6.87;100.00
20015;BME280;61787;42.022;23.078;2023-11-18T02:34:32;95943.56;;;6.83;100.00
20015;BME280;61787;42.022;23.078;2023-11-18T02:35:50;95944.34;;;6.84;100.00
20015;BME280;61787;42.022;23.078;2023-11-18T02:36:53;95946.56;;;6.82;100.00
20015;BME280;61787;42.022;23.078;2023-11-18T02:38:01;95934.34;;;6.81;100.00
20015;BME280;61787;42.022;23.078;2023-11-18T02:39:06;95937.66;;;6.78;100.00
20015;BME280;61787;42.022;23.078;2023-11-18T02:40:11;95953.63;;;6.78;100.00
20015;BME280;61787;42.022;23.078;2023-11-18T02:41:16;95955.22;;;6.79;100.00
20015;BME280;61787;42.022;23.078;2023-11-18T02:42:21;95963.19;;;6.79;100.00
20015;BME280;61787;42.022;23.078;2023-11-18T02:43:26;95967.88;;;6.82;100.00
20015;BME280;61787;42.022;23.078;2023-11-18T02:44:31;95965.66;;;6.84;100.00
20015;BME280;61787;42.022;23.078;2023-11-18T02:45:35;95973.44;;;6.89;100.00
20015;BME280;61787;42.022;23.078;2023-11-18T02:46:38;95965.56;;;6.93;100.00
20015;BME280;61787;42.022;23.078;2023-11-18T02:47:40;95959.69;;;6.99;100.00
20015;BME280;61787;42.022;23.078;2023-11-18T02:48:43;95956.38;;;7.02;100.00
20015;BME280;61787;42.022;23.078;2023-11-18T02:49:45;95961.03;;;7.05;100.00
20015;BME280;61787;42.022;23.078;2023-11-18T02:50:46;95952.72;;;7.07;100.00
20015;BME280;61787;42.022;23.078;2023-11-18T02:51:48;95949.72;;;7.08;100.00
20015;BME280;61787;42.022;23.078;2023-11-18T02:52:50;95965.06;;;7.11;100.00
20015;BME280;61787;42.022;23.078;2023-11-18T02:53:52;95964.59;;;7.09;100.00
20015;BME280;61787;42.022;23.078;2023-11-18T02:54:53;95963.19;;;7.12;100.00
20015;BME280;61787;42.022;23.078;2023-11-18T02:55:55;95955.28;;;7.15;100.00
20015;BME280;61787;42.022;23.078;2023-11-18T02:57:03;95947.75;;;7.17;100.00
20015;BME280;61787;42.022;23.078;2023-11-18T02:58:05;95942.28;;;7.14;100.00
20015;BME280;61787;42.022;23.078;2023-11-18T02:59:07;95936.84;;;7.10;100.00
20015;BME280;61787;42.022;23.078;2023-11-18T03:00:09;95930.72;;;7.10;100.00
20015;BME280;61787;42.022;23.078;2023-11-18T03:01:18;95925.94;;;7.03;100.00
20015;BME280;61787;42.022;23.078;2023-11-18T03:02:21;95919.72;;;6.99;100.00
20015;BME280;61787;42.022;23.078;2023-11-18T03:03:22;95917.72;;;6.96;100.00
20015;BME280;61787;42.022;23.078;2023-11-18T03:04:24;95913.50;;;6.95;100.00
20015;BME280;61787;42.022;23.078;2023-11-18T03:05:26;95910.28;;;6.90;100.00
20015;BME280;61787;42.022;23.078;2023-11-18T03:06:28;95907.16;;;6.88;100.00
20015;BME280;61787;42.022;23.078;2023-11-18T03:07:29;95913.69;;;6.78;100.00
20015;BME280;61787;42.022;23.078;2023-11-18T03:08:31;95913.69;;;6.78;100.00
20015;BME280;61787;42.022;23.078;2023-11-18T03:09:33;95925.91;;;6.79;100.00
20015;BME280;61787;42.022;23.078;2023-11-18T03:10:36;95916.34;;;6.78;100.00
20015;BME280;61787;42.022;23.078;2023-11-18T03:11:39;95919.69;;;6.75;100.00
20015;BME280;61787;42.022;23.078;2023-11-18T03:12:40;95921.88;;;6.73;100.00
20015;BME280;61787;42.022;23.078;2023-11-18T03:13:42;95925.22;;;6.70;100.00
20015;BME280;61787;42.022;23.078;2023-11-18T03:14:43;95928.19;;;6.68;100.00
20015;BME280;61787;42.022;23.078;2023-11-18T03:15:46;95932.44;;;6.69;100.00
20015;BME280;61787;42.022;23.078;2023-11-18T03:16:49;95940.75;;;6.68;100.00
20015;BME280;61787;42.022;23.078;2023-11-18T03:17:51;95940.75;;;6.68;100.00
20015;BME280;61787;42.022;23.078;2023-11-18T03:18:53;95945.44;;;6.71;100.00
20015;BME280;61787;42.022;23.078;2023-11-18T03:19:56;95932.75;;;6.68;100.00
20015;BME280;61787;42.022;23.078;2023-11-18T03:20:58;95955.19;;;6.67;100.00
20015;BME280;61787;42.022;23.078;2023-11-18T03:22:02;95945.28;;;6.67;100.00
20015;BME280;61787;42.022;23.078;2023-11-18T03:23:04;95954.53;;;6.70;100.00
20015;BME280;61787;42.022;23.078;2023-11-18T03:24:07;95949.97;;;6.70;100.00
20015;BME280;61787;42.022;23.078;2023-11-18T03:25:08;95956.41;;;6.69;100.00
20015;BME280;61787;42.022;23.078;2023-11-18T03:26:11;95965.19;;;6.70;100.00
20015;BME280;61787;42.022;23.078;2023-11-18T03:27:12;95978.97;;;6.72;100.00
20015;BME280;61787;42.022;23.078;2023-11-18T03:28:14;95978.28;;;6.75;100.00
20015;BME280;61787;42.022;23.078;2023-11-18T03:29:16;95984.41;;;6.75;100.00
20015;BME280;61787;42.022;23.078;2023-11-18T03:30:17;95980.75;;;6.80;100.00
20015;BME280;61787;42.022;23.078;2023-11-18T03:31:19;95992.97;;;6.81;100.00
20015;BME280;61787;42.022;23.078;2023-11-18T03:32:21;95983.41;;;6.80;100.00
20015;BME280;61787;42.022;23.078;2023-11-18T03:33:23;95983.88;;;6.82;100.00
20015;BME280;61787;42.022;23.078;2023-11-18T03:34:24;95995.28;;;6.82;100.00
20015;BME280;61787;42.022;23.078;2023-11-18T03:35:26;95986.06;;;6.80;100.00
20015;BME280;61787;42.022;23.078;2023-11-18T03:36:28;95994.06;;;6.80;100.00
20015;BME280;61787;42.022;23.078;2023-11-18T03:37:30;95988.41;;;6.81;100.00
20015;BME280;61787;42.022;23.078;2023-11-18T03:38:33;95996.94;;;6.75;100.00
20015;BME280;61787;42.022;23.078;2023-11-18T03:39:35;95992.72;;;6.74;100.00
20015;BME280;61787;42.022;23.078;2023-11-18T03:40:36;95995.56;;;6.69;100.00
20015;BME280;61787;42.022;23.078;2023-11-18T03:41:38;96004.03;;;6.71;100.00
20015;BME280;61787;42.022;23.078;2023-11-18T03:42:43;95999.81;;;6.70;100.00
20015;BME280;61787;42.022;23.078;2023-11-18T03:43:45;96003.56;;;6.69;100.00
20015;BME280;61787;42.022;23.078;2023-11-18T03:44:49;96005.00;;;6.66;100.00
20015;BME280;61787;42.022;23.078;2023-11-18T03:45:51;96007.53;;;6.63;100.00
20015;BME280;61787;42.022;23.078;2023-11-18T03:46:58;96011.97;;;6.59;100.00
20015;BME280;61787;42.022;23.078;2023-11-18T03:48:00;96007.28;;;6.56;100.00
20015;BME280;61787;42.022;23.078;2023-11-18T03:49:02;96013.91;;;6.50;100.00
20015;BME280;61787;42.022;23.078;2023-11-18T03:50:04;96018.59;;;6.53;100.00
20015;BME280;61787;42.022;23.078;2023-11-18T03:51:07;96014.03;;;6.53;100.00
20015;BME280;61787;42.022;23.078;2023-11-18T03:52:09;96013.13;;;6.49;100.00
20015;BME280;61787;42.022;23.078;2023-11-18T03:53:11;96019.25;;;6.50;100.00
20015;BME280;61787;42.022;23.078;2023-11-18T03:54:12;96024.56;;;6.50;100.00
20015;BME280;61787;42.022;23.078;2023-11-18T03:55:15;96030.53;;;6.47;100.00
20015;BME280;61787;42.022;23.078;2023-11-18T03:56:17;96027.56;;;6.48;100.00
20015;BME280;61787;42.022;23.078;2023-11-18T03:57:22;96031.47;;;6.51;100.00
20015;BME280;61787;42.022;23.078;2023-11-18T03:58:24;96032.03;;;6.56;100.00
20015;BME280;61787;42.022;23.078;2023-11-18T03:59:25;96033.06;;;6.64;100.00
20015;BME280;61787;42.022;23.078;2023-11-18T04:00:27;96034.44;;;6.70;100.00
20015;BME280;61787;42.022;23.078;2023-11-18T04:01:33;96036.22;;;6.78;100.00
20015;BME280;61787;42.022;23.078;2023-11-18T04:02:40;96033.84;;;6.85;100.00
20015;BME280;61787;42.022;23.078;2023-11-18T04:03:52;96025.06;;;6.84;100.00
20015;BME280;61787;42.022;23.078;2023-11-18T04:05:10;96017.63;;;6.90;100.00
20015;BME280;61787;42.022;23.078;2023-11-18T04:06:34;96016.56;;;7.03;100.00
20015;BME280;61787;42.022;23.078;2023-11-18T04:07:36;96017.91;;;7.09;100.00
20015;BME280;61787;42.022;23.078;2023-11-18T04:08:37;96021.16;;;7.15;100.00
20015;BME280;61787;42.022;23.078;2023-11-18T04:09:41;96011.84;;;7.21;100.00
20015;BME280;61787;42.022;23.078;2023-11-18T04:10:51;96021.03;;;7.23;100.00
20015;BME280;61787;42.022;23.078;2023-11-18T04:11:53;96022.59;;;7.24;100.00
20015;BME280;61787;42.022;23.078;2023-11-18T04:12:55;96021.03;;;7.23;100.00
20015;BME280;61787;42.022;23.078;2023-11-18T04:13:57;96031.03;;;7.14;100.00
20015;BME280;61787;42.022;23.078;2023-11-18T04:14:58;96022.13;;;7.10;100.00
20015;BME280;61787;42.022;23.078;2023-11-18T04:16:00;96039.00;;;7.02;100.00
20015;BME280;61787;42.022;23.078;2023-11-18T04:17:02;96028.88;;;6.96;100.00
20015;BME280;61787;42.022;23.078;2023-11-18T04:18:04;96042.84;;;6.93;100.00
20015;BME280;61787;42.022;23.078;2023-11-18T04:19:07;96035.59;;;6.81;100.00
20015;BME280;61787;42.022;23.078;2023-11-18T04:20:10;96044.22;;;6.78;100.00
20015;BME280;61787;42.022;23.078;2023-11-18T04:21:13;96043.22;;;6.70;100.00
20015;BME280;61787;42.022;23.078;2023-11-18T04:22:15;96042.63;;;6.65;100.00
20015;BME280;61787;42.022;23.078;2023-11-18T04:23:17;96046.38;;;6.64;100.00
20015;BME280;61787;42.022;23.078;2023-11-18T04:24:18;96046.38;;;6.64;100.00
20015;BME280;61787;42.022;23.078;2023-11-18T04:25:20;96058.03;;;6.59;100.00
20015;BME280;61787;42.022;23.078;2023-11-18T04:26:22;96056.03;;;6.56;100.00
20015;BME280;61787;42.022;23.078;2023-11-18T04:27:25;96062.63;;;6.50;100.00
20015;BME280;61787;42.022;23.078;2023-11-18T04:28:27;96055.88;;;6.53;100.00
20015;BME280;61787;42.022;23.078;2023-11-18T04:29:29;96061.19;;;6.53;100.00
20015;BME280;61787;42.022;23.078;2023-11-18T04:30:31;96056.06;;;6.48;100.00
20015;BME280;61787;42.022;23.078;2023-11-18T04:31:34;96064.06;;;6.48;100.00
20015;BME280;61787;42.022;23.078;2023-11-18T04:32:35;96062.38;;;6.43;100.00
20015;BME280;61787;42.022;23.078;2023-11-18T04:33:37;96062.25;;;6.39;100.00
20015;BME280;61787;42.022;23.078;2023-11-18T04:34:41;96059.25;;;6.41;100.00
20015;BME280;61787;42.022;23.078;2023-11-18T04:35:46;96061.78;;;6.37;100.00
20015;BME280;61787;42.022;23.078;2023-11-18T04:36:47;96056.97;;;6.31;100.00
20015;BME280;61787;42.022;23.078;2023-11-18T04:37:49;96060.16;;;6.24;100.00
20015;BME280;61787;42.022;23.078;2023-11-18T04:38:51;96040.31;;;6.13;100.00
20015;BME280;61787;42.022;23.078;2023-11-18T04:39:52;96046.50;;;6.05;100.00
20015;BME280;61787;42.022;23.078;2023-11-18T04:40:56;96035.56;;;5.98;100.00
20015;BME280;61787;42.022;23.078;2023-11-18T04:41:58;96036.84;;;5.92;100.00
20015;BME280;61787;42.022;23.078;2023-11-18T04:43:00;96039.84;;;5.82;100.00
20015;BME280;61787;42.022;23.078;2023-11-18T04:44:02;96043.34;;;5.74;100.00
20015;BME280;61787;42.022;23.078;2023-11-18T04:45:04;96038.19;;;5.69;100.00
20015;BME280;61787;42.022;23.078;2023-11-18T04:46:06;96035.72;;;5.64;100.00
20015;BME280;61787;42.022;23.078;2023-11-18T04:47:07;96044.50;;;5.55;100.00
20015;BME280;61787;42.022;23.078;2023-11-18T04:48:09;96028.28;;;5.48;100.00
20015;BME280;61787;42.022;23.078;2023-11-18T04:49:11;96037.66;;;5.46;100.00
20015;BME280;61787;42.022;23.078;2023-11-18T04:50:13;96044.56;;;5.38;100.00
20015;BME280;61787;42.022;23.078;2023-11-18T04:51:15;96035.84;;;5.29;100.00
20015;BME280;61787;42.022;23.078;2023-11-18T04:52:18;96042.25;;;5.28;100.00
20015;BME280;61787;42.022;23.078;2023-11-18T04:53:20;96043.66;;;5.26;100.00
20015;BME280;61787;42.022;23.078;2023-11-18T04:54:22;96043.06;;;5.20;100.00
20015;BME280;61787;42.022;23.078;2023-11-18T04:55:24;96026.19;;;5.16;100.00
20015;BME280;61787;42.022;23.078;2023-11-18T04:56:27;96035.25;;;5.15;100.00
20015;BME280;61787;42.022;23.078;2023-11-18T04:57:29;96030.41;;;5.08;100.00
20015;BME280;61787;42.022;23.078;2023-11-18T04:58:30;96035.72;;;5.08;100.00
20015;BME280;61787;42.022;23.078;2023-11-18T04:59:32;96037.94;;;5.06;100.00
20015;BME280;61787;42.022;23.078;2023-11-18T05:00:34;96037.59;;;5.08;100.00
20015;BME280;61787;42.022;23.078;2023-11-18T05:01:36;96047.78;;;5.06;100.00
20015;BME280;61787;42.022;23.078;2023-11-18T05:02:39;96044.81;;;5.07;100.00
20015;BME280;61787;42.022;23.078;2023-11-18T05:03:41;96040.25;;;5.08;100.00
20015;BME280;61787;42.022;23.078;2023-11-18T05:04:43;96048.69;;;5.10;100.00
20015;BME280;61787;42.022;23.078;2023-11-18T05:05:45;96041.81;;;5.09;100.00
20015;BME280;61787;42.022;23.078;2023-11-18T05:06:47;96050.88;;;5.08;100.00
20015;BME280;61787;42.022;23.078;2023-11-18T05:07:48;96061.06;;;5.06;100.00
20015;BME280;61787;42.022;23.078;2023-11-18T05:08:50;96061.06;;;5.06;100.00
20015;BME280;61787;42.022;23.078;2023-11-18T05:09:52;96057.63;;;5.05;100.00
20015;BME280;61787;42.022;23.078;2023-11-18T05:10:53;96070.59;;;5.07;100.00
20015;BME280;61787;42.022;23.078;2023-11-18T05:11:57;96061.50;;;5.08;100.00
20015;BME280;61787;42.022;23.078;2023-11-18T05:12:59;96057.63;;;5.05;100.00
20015;BME280;61787;42.022;23.078;2023-11-18T05:14:01;96069.03;;;5.06;100.00
20015;BME280;61787;42.022;23.078;2023-11-18T05:15:06;96067.78;;;5.03;100.00
20015;BME280;61787;42.022;23.078;2023-11-18T05:16:09;96061.22;;;5.01;100.00
20015;BME280;61787;42.022;23.078;2023-11-18T05:17:13;96061.84;;;4.98;100.00
20015;BME280;61787;42.022;23.078;2023-11-18T05:18:15;96058.75;;;4.96;100.00
20015;BME280;61787;42.022;23.078;2023-11-18T05:19:17;96069.34;;;4.96;100.00
20015;BME280;61787;42.022;23.078;2023-11-18T05:20:20;96056.53;;;4.98;100.00
20015;BME280;61787;42.022;23.078;2023-11-18T05:21:22;96064.34;;;4.94;100.00
20015;BME280;61787;42.022;23.078;2023-11-18T05:22:24;96072.19;;;4.91;100.00
20015;BME280;61787;42.022;23.078;2023-11-18T05:23:26;96071.88;;;4.92;100.00
20015;BME280;61787;42.022;23.078;2023-11-18T05:24:28;96072.19;;;4.91;100.00
20015;BME280;61787;42.022;23.078;2023-11-18T05:25:29;96081.09;;;4.86;100.00
20015;BME280;61787;42.022;23.078;2023-11-18T05:26:31;96077.97;;;4.84;100.00
20015;BME280;61787;42.022;23.078;2023-11-18T05:27:33;96087.78;;;4.84;100.00
20015;BME280;61787;42.022;23.078;2023-11-18T05:28:34;96085.63;;;4.86;100.00
20015;BME280;61787;42.022;23.078;2023-11-18T05:29:36;96085.31;;;4.87;100.00
20015;BME280;61787;42.022;23.078;2023-11-18T05:30:41;96093.44;;;4.91;100.00
20015;BME280;61787;42.022;23.078;2023-11-18T05:31:44;96093.44;;;4.91;100.00